createdAt,value
2019-02-23T00:02:00.798Z,6.90
2019-02-23T00:04:28.989Z,7.33
2019-02-23T00:06:57.274Z,6.57
2019-02-23T00:09:25.538Z,6.53
2019-02-23T00:11:53.822Z,6.63
2019-02-23T00:14:22.081Z,6.60
2019-02-23T00:16:50.312Z,5.97
2019-02-23T00:19:24.850Z,6.03
2019-02-23T00:21:48.409Z,6.70
2019-02-23T00:24:16.644Z,6.30
2019-02-23T00:26:44.905Z,6.67
2019-02-23T00:29:13.129Z,8.23
2019-02-23T00:31:41.394Z,6.53
2019-02-23T00:34:09.610Z,5.90
2019-02-23T00:36:37.876Z,5.93
2019-02-23T00:39:06.335Z,6.50
2019-02-23T00:41:34.586Z,7.17
2019-02-23T00:44:02.790Z,6.80
2019-02-23T00:46:31.111Z,7.00
2019-02-23T00:48:59.347Z,6.73
2019-02-23T00:51:27.645Z,7.10
2019-02-23T00:53:55.906Z,6.30
2019-02-23T00:56:24.209Z,6.50
2019-02-23T00:58:52.471Z,6.23
2019-02-23T01:01:20.753Z,6.63
2019-02-23T01:03:48.941Z,7.23
2019-02-23T01:06:17.269Z,6.60
2019-02-23T01:08:45.550Z,5.73
2019-02-23T01:11:13.813Z,6.63
2019-02-23T01:13:42.029Z,6.53
2019-02-23T01:16:10.354Z,6.03
2019-02-23T01:18:38.715Z,5.93
2019-02-23T01:21:06.981Z,7.37
2019-02-23T01:23:35.263Z,5.47
2019-02-23T01:26:03.529Z,6.00
2019-02-23T01:28:31.785Z,7.20
2019-02-23T01:31:00.016Z,6.80
2019-02-23T01:33:28.295Z,8.10
2019-02-23T01:35:56.558Z,7.00
2019-02-23T01:38:24.881Z,7.77
2019-02-23T01:40:53.241Z,7.90
2019-02-23T01:43:21.429Z,7.77
2019-02-23T01:45:49.641Z,7.03
2019-02-23T01:48:17.902Z,8.37
2019-02-23T01:50:46.199Z,7.40
2019-02-23T01:53:14.392Z,7.63
2019-02-23T01:55:42.649Z,7.10
2019-02-23T01:58:10.862Z,7.20
2019-02-23T02:00:39.606Z,8.10
2019-02-23T02:03:07.962Z,7.13
2019-02-23T02:05:36.305Z,8.03
2019-02-23T02:08:04.522Z,7.53
2019-02-23T02:10:32.783Z,8.63
2019-02-23T02:13:01.170Z,7.83
2019-02-23T02:15:29.439Z,7.40
2019-02-23T02:17:57.735Z,8.73
2019-02-23T02:20:26.010Z,7.57
2019-02-23T02:22:54.306Z,8.87
2019-02-23T02:25:22.496Z,8.17
2019-02-23T02:27:50.853Z,8.27
2019-02-23T02:30:19.047Z,7.40
2019-02-23T02:32:47.402Z,8.13
2019-02-23T02:35:15.670Z,8.40
2019-02-23T02:37:43.937Z,9.00
2019-02-23T02:40:12.230Z,8.60
2019-02-23T02:42:40.495Z,8.97
2019-02-23T02:45:09.793Z,8.60
2019-02-23T02:47:38.053Z,9.43
2019-02-23T02:50:07.356Z,8.97
2019-02-23T02:52:35.627Z,10.30
2019-02-23T02:55:04.495Z,9.50
2019-02-23T02:57:32.767Z,9.40
2019-02-23T03:00:01.124Z,8.80
2019-02-23T03:02:29.392Z,10.23
2019-02-23T03:04:59.227Z,9.00
2019-02-23T03:07:27.490Z,10.40
2019-02-23T03:09:55.686Z,10.03
2019-02-23T03:12:23.973Z,10.30
2019-02-23T03:14:52.216Z,9.17
2019-02-23T03:17:20.478Z,10.20
2019-02-23T03:19:48.673Z,9.80
2019-02-23T03:22:16.957Z,10.97
2019-02-23T03:24:45.158Z,9.80
2019-02-23T03:27:13.445Z,9.77
2019-02-23T03:29:41.802Z,10.97
2019-02-23T03:32:10.107Z,9.83
2019-02-23T03:34:38.372Z,10.40
2019-02-23T03:37:06.663Z,9.47
2019-02-23T03:39:34.922Z,9.83
2019-02-23T03:42:03.182Z,10.83
2019-02-23T03:44:31.400Z,9.93
2019-02-23T03:46:59.678Z,11.23
2019-02-23T03:49:27.962Z,10.43
2019-02-23T03:51:56.160Z,11.03
2019-02-23T03:54:24.517Z,9.47
2019-02-23T03:56:52.710Z,10.17
2019-02-23T03:59:22.541Z,10.80
2019-02-23T04:01:50.878Z,10.20
2019-02-23T04:04:19.070Z,11.07
2019-02-23T04:06:47.365Z,10.73
2019-02-23T04:09:15.637Z,11.00
2019-02-23T04:11:43.936Z,11.10
2019-02-23T04:14:12.210Z,10.70
2019-02-23T04:16:40.499Z,12.10
2019-02-23T04:19:08.766Z,10.60
2019-02-23T04:21:37.058Z,11.90
2019-02-23T04:24:05.258Z,11.93
2019-02-23T04:26:33.562Z,10.93
2019-02-23T04:29:01.826Z,11.87
2019-02-23T04:31:30.054Z,11.87
2019-02-23T04:33:58.329Z,11.50
2019-02-23T04:36:26.626Z,11.70
2019-02-23T04:38:54.902Z,12.47
2019-02-23T04:41:23.222Z,13.67
2019-02-23T04:43:51.490Z,12.50
2019-02-23T04:46:19.757Z,12.37
2019-02-23T04:48:48.056Z,13.20
2019-02-23T04:51:16.337Z,11.40
2019-02-23T04:53:44.690Z,13.00
2019-02-23T04:56:12.963Z,12.13
2019-02-23T04:58:41.262Z,12.00
2019-02-23T05:01:09.525Z,11.20
2019-02-23T05:03:37.830Z,12.47
2019-02-23T05:06:06.094Z,12.17
2019-02-23T05:08:34.398Z,12.20
2019-02-23T05:11:02.669Z,12.40
2019-02-23T05:13:30.989Z,13.97
2019-02-23T05:15:59.191Z,13.13
2019-02-23T05:18:27.464Z,12.87
2019-02-23T05:20:55.829Z,14.47
2019-02-23T05:23:24.106Z,11.80
2019-02-23T05:25:52.325Z,12.60
2019-02-23T05:28:20.602Z,12.60
2019-02-23T05:30:48.897Z,12.57
2019-02-23T05:33:17.166Z,12.93
2019-02-23T05:35:45.466Z,13.50
2019-02-23T05:38:13.739Z,11.93
2019-02-23T05:40:42.038Z,12.90
2019-02-23T05:43:10.230Z,12.40
2019-02-23T05:45:38.502Z,12.47
2019-02-23T05:48:07.684Z,13.47
2019-02-23T05:50:35.962Z,12.27
2019-02-23T05:53:04.274Z,13.30
2019-02-23T05:55:32.530Z,13.37
2019-02-23T05:58:00.754Z,14.40
2019-02-23T06:00:28.953Z,13.33
2019-02-23T06:02:57.266Z,12.80
2019-02-23T06:05:25.539Z,13.77
2019-02-23T06:07:53.842Z,12.70
2019-02-23T06:10:22.114Z,12.93
2019-02-23T06:12:50.338Z,12.90
2019-02-23T06:15:18.547Z,14.60
2019-02-23T06:17:46.815Z,12.70
2019-02-23T06:20:15.122Z,13.10
2019-02-23T06:22:43.410Z,14.27
2019-02-23T06:25:11.712Z,12.27
2019-02-23T06:27:39.983Z,13.50
2019-02-23T06:30:09.751Z,12.40
2019-02-23T06:32:38.026Z,13.57
2019-02-23T06:35:07.189Z,11.80
2019-02-23T06:37:35.395Z,14.57
2019-02-23T06:40:04.180Z,13.37
2019-02-23T06:42:32.459Z,14.57
2019-02-23T06:45:00.731Z,13.63
2019-02-23T06:47:29.027Z,13.20
2019-02-23T06:49:57.307Z,13.27
2019-02-23T06:52:25.596Z,12.73
2019-02-23T06:54:53.867Z,12.60
2019-02-23T06:57:22.174Z,14.20
2019-02-23T06:59:50.447Z,12.67
2019-02-23T07:02:18.742Z,12.10
2019-02-23T07:04:47.931Z,13.50
2019-02-23T07:07:16.259Z,13.83
2019-02-23T07:09:44.530Z,13.37
2019-02-23T07:12:13.639Z,13.17
2019-02-23T07:14:41.931Z,29.60
2019-02-23T07:17:10.202Z,20.57
2019-02-23T07:19:38.497Z,15.00
2019-02-23T07:22:15.191Z,14.13
2019-02-23T07:24:36.638Z,13.57
2019-02-23T07:27:04.906Z,13.50
2019-02-23T07:29:33.130Z,14.97
2019-02-23T07:32:01.394Z,12.53
2019-02-23T07:34:29.621Z,12.37
2019-02-23T07:36:57.898Z,14.00
2019-02-23T07:39:26.166Z,14.70
2019-02-23T07:41:54.387Z,13.90
2019-02-23T07:44:22.846Z,14.80
2019-02-23T07:46:51.145Z,13.60
2019-02-23T07:49:19.408Z,13.90
2019-02-23T07:51:47.709Z,13.50
2019-02-23T07:54:16.166Z,13.63
2019-02-23T07:56:44.391Z,13.37
2019-02-23T07:59:12.667Z,12.90
2019-02-23T08:01:40.967Z,13.50
2019-02-23T08:04:09.229Z,13.37
2019-02-23T08:06:37.517Z,12.47
2019-02-23T08:09:05.846Z,13.33
2019-02-23T08:11:34.071Z,13.10
2019-02-23T08:14:02.369Z,12.80
2019-02-23T08:16:30.644Z,12.27
2019-02-23T08:18:59.255Z,13.00
2019-02-23T08:21:27.505Z,12.10
2019-02-23T08:23:55.739Z,13.90
2019-02-23T08:26:24.010Z,12.17
2019-02-23T08:28:52.482Z,12.80
2019-02-23T08:31:20.678Z,11.30
2019-02-23T08:33:48.906Z,11.50
2019-02-23T08:36:17.166Z,10.87
2019-02-23T08:38:45.442Z,12.13
2019-02-23T08:41:13.742Z,14.00
2019-02-23T08:43:41.938Z,10.50
2019-02-23T08:46:10.234Z,11.77
2019-02-23T08:48:38.498Z,10.33
2019-02-23T08:51:06.718Z,10.57
2019-02-23T08:53:34.946Z,10.37
2019-02-23T08:56:03.279Z,10.10
2019-02-23T08:58:31.542Z,9.70
2019-02-23T09:00:59.830Z,9.53
2019-02-23T09:03:28.020Z,10.10
2019-02-23T09:05:56.282Z,8.70
2019-02-23T09:08:24.497Z,8.97
2019-02-23T09:10:52.690Z,9.07
2019-02-23T09:13:20.907Z,8.83
2019-02-23T09:15:49.177Z,9.07
2019-02-23T09:18:17.471Z,8.60
2019-02-23T09:20:45.729Z,8.30
2019-02-23T09:23:13.941Z,8.60
2019-02-23T09:25:42.201Z,8.63
2019-02-23T09:28:10.527Z,8.40
2019-02-23T09:30:38.790Z,8.13
2019-02-23T09:33:07.057Z,7.93
2019-02-23T09:35:35.269Z,8.53
2019-02-23T09:38:03.535Z,6.87
2019-02-23T09:40:31.824Z,7.43
2019-02-23T09:43:00.342Z,6.47
2019-02-23T09:45:28.638Z,6.90
2019-02-23T09:47:56.829Z,9.50
2019-02-23T09:50:25.121Z,7.07
2019-02-23T09:52:53.377Z,6.67
2019-02-23T09:55:21.666Z,6.47
2019-02-23T09:57:49.862Z,6.37
2019-02-23T10:00:18.136Z,6.40
2019-02-23T10:02:46.428Z,6.10
2019-02-23T10:05:14.682Z,7.07
2019-02-23T10:07:42.894Z,6.10
2019-02-23T10:10:11.353Z,6.37
2019-02-23T10:12:39.641Z,6.80
2019-02-23T10:15:09.367Z,6.33
2019-02-23T10:17:37.654Z,5.93
2019-02-23T10:20:07.490Z,6.60
2019-02-23T10:22:35.678Z,6.50
2019-02-23T10:25:04.533Z,5.87
2019-02-23T10:27:32.794Z,5.47
2019-02-23T10:30:01.007Z,5.73
2019-02-23T10:32:29.542Z,6.03
2019-02-23T10:34:57.758Z,5.53
2019-02-23T10:37:26.018Z,5.70
2019-02-23T10:39:54.307Z,6.00
2019-02-23T10:42:22.493Z,5.90
2019-02-23T10:44:50.711Z,5.77
2019-02-23T10:47:18.974Z,6.30
2019-02-23T10:49:47.303Z,5.90
2019-02-23T10:52:15.557Z,5.47
2019-02-23T10:54:43.889Z,6.53
2019-02-23T10:57:12.103Z,6.20
2019-02-23T10:59:40.362Z,5.30
2019-02-23T11:02:08.727Z,5.10
2019-02-23T11:04:36.982Z,4.57
2019-02-23T11:07:05.343Z,5.47
2019-02-23T11:09:33.884Z,5.40
2019-02-23T11:12:02.170Z,5.10
2019-02-23T11:14:30.432Z,5.80
2019-02-23T11:16:58.698Z,5.83
2019-02-23T11:19:27.054Z,5.67
2019-02-23T11:21:55.389Z,6.27
2019-02-23T11:24:23.607Z,5.97
2019-02-23T11:26:53.562Z,5.23
2019-02-23T11:29:21.850Z,6.17
2019-02-23T11:31:50.119Z,5.93
2019-02-23T11:34:18.477Z,5.37
2019-02-23T11:36:46.669Z,5.13
2019-02-23T11:39:14.949Z,4.93
2019-02-23T11:41:43.214Z,4.70
2019-02-23T11:44:11.426Z,4.80
2019-02-23T11:46:39.688Z,4.57
2019-02-23T11:49:08.347Z,3.87
2019-02-23T11:51:36.637Z,4.20
2019-02-23T11:54:04.930Z,4.33
2019-02-23T11:56:33.193Z,3.73
2019-02-23T11:59:01.641Z,4.07
2019-02-23T12:01:30.758Z,5.10
2019-02-23T12:03:59.022Z,4.70
2019-02-23T12:06:30.172Z,4.37
2019-02-23T12:08:59.001Z,3.60
2019-02-23T12:11:29.107Z,3.43
2019-02-23T12:13:58.389Z,3.80
2019-02-23T12:16:27.775Z,2.80
2019-02-23T12:18:56.279Z,3.20
2019-02-23T12:21:24.847Z,2.57
2019-02-23T12:24:05.427Z,3.20
2019-02-23T12:26:25.786Z,3.00
2019-02-23T12:28:55.966Z,2.93
2019-02-23T12:31:24.237Z,3.17
2019-02-23T12:33:54.414Z,2.90
2019-02-23T12:36:22.678Z,2.97
2019-02-23T12:38:52.143Z,3.00
2019-02-23T12:41:21.474Z,3.00
2019-02-23T12:43:50.689Z,2.60
2019-02-23T12:46:20.415Z,2.60
2019-02-23T12:48:48.967Z,2.67
2019-02-23T12:51:18.241Z,3.20
2019-02-23T12:53:46.646Z,2.87
2019-02-23T12:56:15.159Z,2.97
2019-02-23T12:58:44.794Z,2.40
2019-02-23T13:01:13.070Z,3.10
2019-02-23T13:03:43.289Z,2.77
2019-02-23T13:06:14.237Z,3.70
2019-02-23T13:09:00.742Z,4.00
2019-02-23T13:11:29.118Z,3.43
2019-02-23T13:14:04.614Z,2.53
2019-02-23T13:16:36.043Z,2.33
2019-02-23T13:19:13.197Z,3.20
2019-02-23T13:21:43.261Z,2.83
2019-02-23T13:24:13.990Z,2.90
2019-02-23T13:26:52.459Z,2.80
2019-02-23T13:29:38.826Z,3.40
2019-02-23T13:32:08.658Z,2.60
2019-02-23T13:34:38.456Z,3.40
2019-02-23T13:37:10.958Z,2.90
2019-02-23T13:39:40.788Z,2.70
2019-02-23T13:42:10.585Z,2.37
2019-02-23T13:44:40.754Z,3.23
2019-02-23T13:47:16.591Z,3.00
2019-02-23T13:49:48.122Z,3.00
2019-02-23T13:52:19.642Z,2.50
2019-02-23T13:55:02.248Z,2.63
2019-02-23T13:57:47.095Z,2.50
2019-02-23T14:00:25.647Z,2.30
2019-02-23T14:03:00.054Z,2.33
2019-02-23T14:05:44.950Z,3.07
2019-02-23T14:08:14.769Z,3.30
2019-02-23T14:10:44.591Z,3.40
2019-02-23T14:13:14.386Z,3.37
2019-02-23T14:16:03.821Z,2.63
2019-02-23T14:18:33.550Z,2.83
2019-02-23T14:21:03.373Z,3.50
2019-02-23T14:23:42.126Z,3.20
2019-02-23T14:26:28.105Z,3.27
2019-02-23T14:29:04.553Z,2.70
2019-02-23T14:31:42.748Z,2.77
2019-02-23T14:34:15.482Z,2.83
2019-02-23T14:36:48.265Z,2.80
2019-02-23T14:39:24.952Z,3.00
2019-02-23T14:41:54.989Z,3.07
2019-02-23T14:44:36.823Z,3.00
2019-02-23T14:47:09.662Z,3.27
2019-02-23T14:49:50.031Z,3.43
2019-02-23T14:52:19.857Z,3.67
2019-02-23T14:55:00.433Z,2.67
2019-02-23T14:57:28.595Z,3.63
2019-02-23T14:59:58.421Z,2.97
2019-02-23T15:02:37.306Z,3.37
2019-02-23T15:05:23.624Z,3.77
2019-02-23T15:07:53.422Z,3.10
2019-02-23T15:10:26.186Z,3.80
2019-02-23T15:13:12.780Z,3.20
2019-02-23T15:15:51.257Z,3.03
2019-02-23T15:18:29.937Z,3.50
2019-02-23T15:21:05.497Z,3.23
2019-02-23T15:23:51.779Z,3.80
2019-02-23T15:26:30.626Z,3.70
2019-02-23T15:29:09.251Z,3.70
2019-02-23T15:31:48.413Z,3.37
2019-02-23T15:34:23.830Z,4.10
2019-02-23T15:37:00.925Z,3.90
2019-02-23T15:39:47.429Z,3.93
2019-02-23T15:42:23.326Z,3.67
2019-02-23T15:44:56.042Z,3.50
2019-02-23T15:47:25.876Z,4.77
2019-02-23T15:49:55.897Z,6.00
2019-02-23T15:52:24.350Z,8.60
2019-02-23T15:54:52.592Z,5.80
2019-02-23T15:57:21.378Z,6.63
2019-02-23T15:59:49.827Z,8.87
2019-02-23T16:02:18.989Z,8.23
2019-02-23T16:04:47.176Z,5.37
2019-02-23T16:07:16.479Z,5.17
2019-02-23T16:09:44.770Z,5.83
2019-02-23T16:12:12.954Z,6.63
2019-02-23T16:14:41.245Z,13.43
2019-02-23T16:17:09.446Z,38.33
2019-02-23T16:19:37.791Z,26.13
2019-02-23T16:22:06.080Z,17.83
2019-02-23T16:24:34.362Z,12.13
2019-02-23T16:27:02.898Z,11.10
2019-02-23T16:29:31.085Z,8.20
2019-02-23T16:31:59.306Z,6.03
2019-02-23T16:34:27.580Z,5.03
2019-02-23T16:36:57.567Z,5.77
2019-02-23T16:39:25.833Z,6.30
2019-02-23T16:41:54.115Z,5.80
2019-02-23T16:44:22.387Z,4.63
2019-02-23T16:46:50.675Z,3.27
2019-02-23T16:49:18.867Z,3.23
2019-02-23T16:51:47.154Z,3.27
2019-02-23T16:54:15.418Z,3.87
2019-02-23T16:56:43.686Z,3.83
2019-02-23T16:59:11.974Z,4.80
2019-02-23T17:01:40.234Z,3.50
2019-02-23T17:04:08.530Z,3.73
2019-02-23T17:06:36.793Z,2.93
2019-02-23T17:09:05.245Z,3.70
2019-02-23T17:11:33.509Z,3.93
2019-02-23T17:14:01.804Z,4.27
2019-02-23T17:16:30.062Z,3.63
2019-02-23T17:18:58.354Z,4.80
2019-02-23T17:21:26.542Z,4.63
2019-02-23T17:23:54.832Z,4.57
2019-02-23T17:26:23.097Z,5.40
2019-02-23T17:28:51.352Z,5.30
2019-02-23T17:31:19.614Z,5.30
2019-02-23T17:33:47.874Z,5.40
2019-02-23T17:36:16.170Z,5.20
2019-02-23T17:38:44.860Z,4.90
2019-02-23T17:41:13.221Z,4.63
2019-02-23T17:43:41.886Z,4.47
2019-02-23T17:46:10.129Z,3.87
2019-02-23T17:48:38.396Z,4.20
2019-02-23T17:51:06.722Z,4.30
2019-02-23T17:53:34.986Z,4.07
2019-02-23T17:56:03.249Z,3.83
2019-02-23T17:58:31.467Z,3.80
2019-02-23T18:00:59.722Z,3.07
2019-02-23T18:03:28.009Z,3.70
2019-02-23T18:05:56.194Z,3.70
2019-02-23T18:08:24.497Z,3.70
2019-02-23T18:10:52.685Z,4.10
2019-02-23T18:13:20.900Z,4.07
2019-02-23T18:15:49.161Z,3.17
2019-02-23T18:18:17.417Z,3.60
2019-02-23T18:20:45.630Z,3.43
2019-02-23T18:23:13.890Z,3.40
2019-02-23T18:25:42.101Z,4.00
2019-02-23T18:28:10.286Z,3.30
2019-02-23T18:30:38.581Z,3.70
2019-02-23T18:33:06.838Z,4.60
2019-02-23T18:35:35.054Z,4.07
2019-02-23T18:38:03.309Z,4.40
2019-02-23T18:40:31.581Z,3.60
2019-02-23T18:42:59.870Z,4.07
2019-02-23T18:45:28.064Z,4.20
2019-02-23T18:47:56.354Z,3.77
2019-02-23T18:50:24.613Z,3.30
2019-02-23T18:52:52.839Z,3.60
2019-02-23T18:55:21.098Z,3.63
2019-02-23T18:57:49.309Z,3.33
2019-02-23T19:00:24.153Z,3.97
2019-02-23T19:02:47.431Z,3.17
2019-02-23T19:05:15.689Z,3.70
2019-02-23T19:07:43.979Z,3.60
2019-02-23T19:10:12.835Z,3.63
2019-02-23T19:12:41.122Z,4.17
2019-02-23T19:15:12.913Z,3.90
2019-02-23T19:17:41.546Z,4.63
2019-02-23T19:20:11.267Z,4.73
2019-02-23T19:22:39.537Z,3.97
2019-02-23T19:25:08.699Z,4.53
2019-02-23T19:27:36.953Z,3.80
2019-02-23T19:30:07.055Z,4.70
2019-02-23T19:32:35.381Z,5.60
2019-02-23T19:35:04.234Z,6.03
2019-02-23T19:37:32.753Z,4.53
2019-02-23T19:40:00.973Z,4.80
2019-02-23T19:42:29.234Z,60.00
2019-02-23T19:44:57.457Z,27.43
2019-02-23T19:47:25.902Z,17.10
2019-02-23T19:49:55.293Z,5.50
2019-02-23T19:52:23.525Z,5.00
2019-02-23T19:54:51.718Z,4.80
2019-02-23T19:57:20.001Z,3.50
2019-02-23T19:59:48.267Z,3.97
2019-02-23T20:02:16.546Z,3.87
2019-02-23T20:04:44.814Z,3.30
2019-02-23T20:07:13.102Z,3.50
2019-02-23T20:09:41.353Z,3.40
2019-02-23T20:12:09.582Z,4.10
2019-02-23T20:14:37.949Z,3.77
2019-02-23T20:17:06.134Z,4.03
2019-02-23T20:19:34.421Z,3.97
2019-02-23T20:22:02.610Z,4.13
2019-02-23T20:24:30.903Z,4.07
2019-02-23T20:26:59.153Z,4.03
2019-02-23T20:29:27.446Z,3.13
2019-02-23T20:31:55.630Z,2.90
2019-02-23T20:34:24.000Z,3.30
2019-02-23T20:36:52.297Z,3.50
2019-02-23T20:39:20.563Z,3.00
2019-02-23T20:41:48.854Z,2.67
2019-02-23T20:44:17.045Z,2.33
2019-02-23T20:46:45.430Z,2.60
2019-02-23T20:49:13.691Z,2.90
2019-02-23T20:51:41.975Z,2.77
2019-02-23T20:54:10.162Z,2.87
2019-02-23T20:56:38.393Z,2.60
2019-02-23T20:59:06.657Z,2.50
2019-02-23T21:01:34.967Z,2.90
2019-02-23T21:04:03.222Z,2.77
2019-02-23T21:06:31.490Z,2.93
2019-02-23T21:08:59.785Z,2.60
2019-02-23T21:11:28.050Z,2.87
2019-02-23T21:13:56.337Z,2.50
2019-02-23T21:16:24.525Z,3.10
2019-02-23T21:18:52.826Z,2.33
2019-02-23T21:21:21.083Z,2.83
2019-02-23T21:23:49.343Z,2.70
2019-02-23T21:26:17.632Z,2.93
2019-02-23T21:28:45.891Z,2.60
2019-02-23T21:31:14.753Z,2.80
2019-02-23T21:33:42.937Z,2.53
2019-02-23T21:36:11.150Z,2.70
2019-02-23T21:38:39.338Z,2.47
2019-02-23T21:41:07.638Z,2.40
2019-02-23T21:43:35.826Z,2.60
2019-02-23T21:46:04.117Z,3.13
2019-02-23T21:48:32.377Z,2.03
2019-02-23T21:51:00.590Z,2.13
2019-02-23T21:53:28.852Z,2.90
2019-02-23T21:55:57.115Z,2.03
2019-02-23T21:58:26.622Z,2.67
2019-02-23T22:00:54.866Z,2.27
2019-02-23T22:03:23.154Z,2.03
2019-02-23T22:05:51.418Z,2.10
2019-02-23T22:08:19.703Z,2.13
2019-02-23T22:10:47.965Z,1.80
2019-02-23T22:13:16.324Z,2.47
2019-02-23T22:15:44.593Z,1.90
2019-02-23T22:18:12.881Z,2.20
2019-02-23T22:20:41.133Z,2.07
2019-02-23T22:23:09.422Z,2.53
2019-02-23T22:25:37.682Z,2.53
2019-02-23T22:28:05.942Z,2.50
2019-02-23T22:30:34.150Z,2.90
2019-02-23T22:33:02.413Z,2.30
2019-02-23T22:35:30.950Z,2.27
2019-02-23T22:37:59.214Z,2.00
2019-02-23T22:40:27.501Z,2.13
2019-02-23T22:42:55.768Z,2.20
2019-02-23T22:45:24.056Z,2.30
2019-02-23T22:47:52.318Z,2.30
2019-02-23T22:50:20.605Z,2.00
2019-02-23T22:52:48.798Z,2.10
2019-02-23T22:55:17.057Z,1.87
2019-02-23T22:57:45.272Z,1.53
2019-02-23T23:00:15.170Z,1.87
2019-02-23T23:02:43.526Z,2.00
2019-02-23T23:05:11.963Z,1.90
2019-02-23T23:07:40.256Z,2.00
2019-02-23T23:10:08.509Z,1.90
2019-02-23T23:12:36.742Z,2.00
2019-02-23T23:15:06.265Z,2.10
2019-02-23T23:17:34.458Z,2.00
2019-02-23T23:20:02.746Z,1.67
2019-02-23T23:22:31.012Z,1.63
2019-02-23T23:24:59.298Z,1.80
2019-02-23T23:27:27.561Z,1.70
2019-02-23T23:29:55.774Z,1.80
2019-02-23T23:32:23.970Z,1.93
2019-02-23T23:34:52.260Z,1.90
2019-02-23T23:37:20.523Z,2.03
2019-02-23T23:39:48.812Z,2.20
2019-02-23T23:42:17.616Z,2.30
2019-02-23T23:44:45.885Z,2.70
2019-02-23T23:47:14.078Z,2.57
2019-02-23T23:49:42.354Z,2.73
2019-02-23T23:52:10.643Z,2.80
2019-02-23T23:54:38.902Z,2.90
2019-02-23T23:57:07.194Z,2.50
2019-02-23T23:59:35.412Z,2.63
